Time;durP1;ratioP1;P1;durP2;ratioP2;P2;SDS_P1;SDS_P2;PMS_P1;PMS_P2;Temp;Humidity;BMP_temperature;BMP_pressure;BME280_temperature;BME280_humidity;BME280_pressure;Samples;Min_cycle;Max_cycle;Signal;HPM_P1;HPM_P2
2023/04/28 00:01:37;;;;;;;;;;;22.00;47.70;;;;;;4825530;55;20119;-28
2023/04/28 00:06:37;;;;;;;;;;;22.00;47.60;;;;;;4761623;55;20299;-28
2023/04/28 00:11:38;;;;;;;;;;;22.00;47.60;;;;;;4783461;55;20175;-30
2023/04/28 00:16:39;;;;;;;;;;;22.00;47.60;;;;;;4745889;58;20069;-25
2023/04/28 00:21:39;;;;;;;;;;;22.00;47.60;;;;;;4746682;56;20125;-28
2023/04/28 00:26:40;;;;;;;;;;;22.00;47.60;;;;;;4781834;55;20128;-28
2023/04/28 00:31:41;;;;;;;;;;;21.90;47.60;;;;;;4762884;55;20097;-28
2023/04/28 00:36:41;;;;;;;;;;;22.00;47.60;;;;;;4750623;55;20084;-28
2023/04/28 00:41:42;;;;;;;;;;;21.90;47.50;;;;;;4790930;55;20124;-28
2023/04/28 00:46:42;;;;;;;;;;;21.90;47.50;;;;;;4770012;55;20676;-28
2023/04/28 00:51:43;;;;;;;;;;;21.90;47.40;;;;;;4762646;55;20088;-33
2023/04/28 00:56:44;;;;;;;;;;;21.90;47.50;;;;;;4833993;55;20076;-31
2023/04/28 01:01:45;;;;;;;;;;;21.90;47.40;;;;;;4999133;55;20342;-26
2023/04/28 01:06:49;;;;;;;;;;;21.90;47.30;;;;;;4825215;55;20120;-28
2023/04/28 01:11:50;;;;;;;;;;;21.90;47.30;;;;;;4746734;58;20290;-30
2023/04/28 01:16:52;;;;;;;;;;;21.90;47.30;;;;;;4817306;55;20068;-29
2023/04/28 01:21:53;;;;;;;;;;;21.90;47.40;;;;;;4759950;55;20168;-30
2023/04/28 01:26:53;;;;;;;;;;;21.90;47.30;;;;;;4746214;58;20068;-28
2023/04/28 01:31:54;;;;;;;;;;;21.90;47.30;;;;;;4784061;55;20159;-27
2023/04/28 01:36:55;;;;;;;;;;;21.90;47.20;;;;;;4777765;55;20084;-29
2023/04/28 01:41:55;;;;;;;;;;;21.90;47.30;;;;;;4764268;55;20453;-29
2023/04/28 01:46:56;;;;;;;;;;;21.90;47.20;;;;;;4746788;55;20088;-24
2023/04/28 01:51:57;;;;;;;;;;;21.90;47.20;;;;;;4759668;55;20921;-29
2023/04/28 01:56:59;;;;;;;;;;;21.90;47.30;;;;;;4745337;58;20141;-28
2023/04/28 02:02:00;;;;;;;;;;;21.90;47.30;;;;;;4746343;58;20884;-33
2023/04/28 02:07:00;;;;;;;;;;;21.90;47.20;;;;;;4778000;55;20072;-32
2023/04/28 02:12:01;;;;;;;;;;;21.90;47.20;;;;;;4829088;55;20326;-28
2023/04/28 02:17:04;;;;;;;;;;;21.90;47.20;;;;;;4770933;55;20068;-24
2023/04/28 02:22:04;;;;;;;;;;;21.90;47.10;;;;;;4746553;58;20661;-31
2023/04/28 02:27:05;;;;;;;;;;;21.90;47.10;;;;;;4746132;56;20390;-28
2023/04/28 02:32:06;;;;;;;;;;;21.90;47.20;;;;;;4746708;58;20336;-27
2023/04/28 02:37:06;;;;;;;;;;;21.80;47.10;;;;;;4787093;55;20149;-29
2023/04/28 02:42:07;;;;;;;;;;;21.80;47.20;;;;;;4756580;55;20132;-28
2023/04/28 02:47:08;;;;;;;;;;;21.80;46.90;;;;;;4822155;55;20574;-28
2023/04/28 02:52:08;;;;;;;;;;;21.80;47.10;;;;;;4746346;58;20052;-26
2023/04/28 02:57:09;;;;;;;;;;;21.80;47.20;;;;;;4781533;55;20069;-27
2023/04/28 03:02:11;;;;;;;;;;;21.80;47.10;;;;;;4774380;55;20140;-28
2023/04/28 03:07:12;;;;;;;;;;;21.80;47.10;;;;;;4763846;55;20355;-28
2023/04/28 03:12:12;;;;;;;;;;;21.80;47.10;;;;;;4796437;55;20061;-28
2023/04/28 03:17:14;;;;;;;;;;;21.80;47.10;;;;;;4746741;58;20295;-27
2023/04/28 03:22:15;;;;;;;;;;;21.80;47.00;;;;;;4746633;58;20366;-28
2023/04/28 03:27:16;;;;;;;;;;;21.80;47.00;;;;;;4773821;55;20164;-28
2023/04/28 03:32:19;;;;;;;;;;;21.80;47.00;;;;;;4746630;58;20215;-26
2023/04/28 03:37:20;;;;;;;;;;;21.80;47.10;;;;;;4746648;55;20136;-27
2023/04/28 03:42:20;;;;;;;;;;;21.80;47.20;;;;;;4753906;55;20052;-27
2023/04/28 03:47:21;;;;;;;;;;;21.80;47.20;;;;;;4752484;55;20215;-29
2023/04/28 03:52:22;;;;;;;;;;;21.80;47.10;;;;;;4746440;58;20072;-28
2023/04/28 03:57:25;;;;;;;;;;;21.80;47.10;;;;;;4818691;55;20104;-28
2023/04/28 04:02:26;;;;;;;;;;;21.80;47.00;;;;;;4746392;58;20076;-28
2023/04/28 04:07:27;;;;;;;;;;;21.80;47.10;;;;;;4855927;55;20072;-28
2023/04/28 04:12:27;;;;;;;;;;;21.80;47.20;;;;;;4829209;55;20062;-28
2023/04/28 04:17:28;;;;;;;;;;;21.80;47.20;;;;;;4768125;55;20076;-30
2023/04/28 04:22:28;;;;;;;;;;;21.80;47.30;;;;;;4768901;55;20132;-29
2023/04/28 04:27:29;;;;;;;;;;;21.80;46.70;;;;;;4787681;55;20386;-30
2023/04/28 04:32:31;;;;;;;;;;;21.70;47.10;;;;;;4748480;55;20052;-28
2023/04/28 04:37:32;;;;;;;;;;;21.70;47.30;;;;;;4763327;55;20064;-28
2023/04/28 04:42:33;;;;;;;;;;;21.80;47.40;;;;;;4746777;58;20056;-28
2023/04/28 04:47:34;;;;;;;;;;;21.80;47.50;;;;;;4764746;55;20250;-31
2023/04/28 04:52:36;;;;;;;;;;;21.70;47.50;;;;;;4847856;55;20101;-29
2023/04/28 04:57:37;;;;;;;;;;;21.80;47.40;;;;;;4820720;55;20298;-28
2023/04/28 05:02:37;;;;;;;;;;;21.80;47.70;;;;;;4769704;55;20068;-28
2023/04/28 05:07:39;;;;;;;;;;;21.70;47.60;;;;;;4821748;55;20121;-27
2023/04/28 05:12:40;;;;;;;;;;;21.80;47.70;;;;;;4746107;58;20323;-27
2023/04/28 05:17:41;;;;;;;;;;;21.80;47.70;;;;;;4853273;55;20321;-27
2023/04/28 05:22:41;;;;;;;;;;;21.80;47.70;;;;;;4746757;56;20291;-33
2023/04/28 05:27:42;;;;;;;;;;;21.80;47.70;;;;;;4754700;55;20118;-29
2023/04/28 05:32:43;;;;;;;;;;;21.80;47.80;;;;;;4797792;55;20327;-29
2023/04/28 05:37:43;;;;;;;;;;;21.80;47.80;;;;;;4768128;55;20124;-29
2023/04/28 05:42:44;;;;;;;;;;;21.70;47.70;;;;;;4746484;58;20064;-31
2023/04/28 05:47:45;;;;;;;;;;;21.70;47.80;;;;;;4748707;55;20109;-29
2023/04/28 05:52:46;;;;;;;;;;;21.70;47.80;;;;;;4772013;55;20359;-30
2023/04/28 05:57:46;;;;;;;;;;;21.80;47.80;;;;;;4790607;55;20151;-31
2023/04/28 06:02:47;;;;;;;;;;;21.80;47.90;;;;;;4827672;55;20064;-32
2023/04/28 06:07:48;;;;;;;;;;;21.80;48.00;;;;;;4793443;55;20388;-29
2023/04/28 06:12:48;;;;;;;;;;;21.70;47.90;;;;;;4805628;55;20125;-31
2023/04/28 06:17:50;;;;;;;;;;;21.80;47.90;;;;;;4772429;55;20339;-28
2023/04/28 06:22:50;;;;;;;;;;;21.80;47.90;;;;;;4795142;55;20303;-31
2023/04/28 06:27:51;;;;;;;;;;;21.80;48.00;;;;;;4773099;55;20101;-29
2023/04/28 06:32:56;;;;;;;;;;;21.70;47.90;;;;;;4753318;55;20060;-29
2023/04/28 06:37:57;;;;;;;;;;;21.80;48.00;;;;;;4810785;55;20355;-30
2023/04/28 06:42:57;;;;;;;;;;;21.80;47.90;;;;;;4748710;55;20052;-31
2023/04/28 06:47:58;;;;;;;;;;;21.80;48.30;;;;;;4772122;55;20358;-29
2023/04/28 06:53:00;;;;;;;;;;;21.80;47.90;;;;;;4826868;55;20112;-23
2023/04/28 06:58:00;;;;;;;;;;;21.70;47.80;;;;;;4754643;55;20283;-24
2023/04/28 07:03:01;;;;;;;;;;;21.80;47.80;;;;;;4836993;55;20060;-24
2023/04/28 07:08:02;;;;;;;;;;;21.80;47.90;;;;;;4743681;58;20056;-33
2023/04/28 07:13:03;;;;;;;;;;;21.90;48.00;;;;;;4781122;55;20068;-24
2023/04/28 07:18:03;;;;;;;;;;;21.90;48.00;;;;;;4757004;55;20130;-26
2023/04/28 07:23:04;;;;;;;;;;;22.00;48.00;;;;;;4751121;55;20117;-29
2023/04/28 07:28:05;;;;;;;;;;;22.00;48.10;;;;;;4758100;55;20068;-27
2023/04/28 07:33:05;;;;;;;;;;;22.00;48.20;;;;;;4743849;58;20323;-25
2023/04/28 07:38:06;;;;;;;;;;;22.10;48.20;;;;;;4767646;55;20097;-32
2023/04/28 07:43:07;;;;;;;;;;;22.10;48.30;;;;;;4773311;55;20164;-28
2023/04/28 07:48:10;;;;;;;;;;;22.10;49.30;;;;;;4776055;55;20330;-25
2023/04/28 07:53:11;;;;;;;;;;;22.10;49.10;;;;;;4743695;58;20068;-28
2023/04/28 07:58:12;;;;;;;;;;;22.10;52.20;;;;;;4782519;55;20338;-27
2023/04/28 08:03:12;;;;;;;;;;;22.20;50.60;;;;;;4743995;58;20339;-27
2023/04/28 08:08:13;;;;;;;;;;;22.20;50.90;;;;;;4773334;55;20104;-27
2023/04/28 08:13:15;;;;;;;;;;;22.20;50.00;;;;;;4755000;55;20076;-24
2023/04/28 08:18:16;;;;;;;;;;;22.10;49.90;;;;;;4753739;55;20294;-27
2023/04/28 08:23:16;;;;;;;;;;;22.10;49.90;;;;;;4741729;58;20155;-26
2023/04/28 08:28:17;;;;;;;;;;;22.10;49.90;;;;;;4756964;55;20410;-28
2023/04/28 08:33:18;;;;;;;;;;;22.10;49.80;;;;;;4743885;55;20378;-27
2023/04/28 08:38:21;;;;;;;;;;;22.00;49.70;;;;;;4845668;55;20197;-25
2023/04/28 08:43:23;;;;;;;;;;;22.00;49.70;;;;;;4752925;55;20350;-23
2023/04/28 08:48:24;;;;;;;;;;;22.00;49.70;;;;;;4757861;55;20283;-28
2023/04/28 08:53:25;;;;;;;;;;;22.00;49.50;;;;;;4752497;55;20068;-27
2023/04/28 08:58:26;;;;;;;;;;;22.00;49.50;;;;;;4745774;55;20144;-28
2023/04/28 09:03:27;;;;;;;;;;;22.00;49.40;;;;;;4777865;55;20545;-29
2023/04/28 09:08:28;;;;;;;;;;;22.00;49.40;;;;;;4778266;55;20342;-27
2023/04/28 09:13:28;;;;;;;;;;;22.00;49.30;;;;;;4750294;55;20163;-31
2023/04/28 09:18:32;;;;;;;;;;;22.00;49.30;;;;;;4754636;55;20056;-22
2023/04/28 09:23:32;;;;;;;;;;;22.00;49.30;;;;;;4775406;55;20295;-25
2023/04/28 09:28:34;;;;;;;;;;;22.00;49.20;;;;;;4769797;55;20116;-29
2023/04/28 09:33:35;;;;;;;;;;;22.00;49.20;;;;;;4749336;55;20172;-23
2023/04/28 09:38:42;;;;;;;;;;;22.00;49.30;;;;;;4744447;58;20132;-28
2023/04/28 09:43:42;;;;;;;;;;;22.00;49.10;;;;;;4794192;55;20247;-27
2023/04/28 09:48:43;;;;;;;;;;;21.90;49.10;;;;;;4744232;58;20113;-27
2023/04/28 09:53:44;;;;;;;;;;;22.00;49.10;;;;;;4775091;55;20069;-28
2023/04/28 09:58:49;;;;;;;;;;;22.00;49.10;;;;;;4747220;55;20116;-29
2023/04/28 10:03:52;;;;;;;;;;;22.00;49.10;;;;;;4766751;55;20175;-26
2023/04/28 10:08:52;;;;;;;;;;;22.00;49.00;;;;;;4747746;55;20307;-29
2023/04/28 10:13:53;;;;;;;;;;;22.00;49.00;;;;;;4744440;58;20076;-28
2023/04/28 10:18:55;;;;;;;;;;;22.00;49.00;;;;;;4831299;55;20402;-29
2023/04/28 10:24:02;;;;;;;;;;;22.00;49.00;;;;;;4772479;55;20160;-30
2023/04/28 10:29:02;;;;;;;;;;;22.00;48.90;;;;;;4753504;55;20072;-29
2023/04/28 10:34:22;;;;;;;;;;;21.90;48.80;;;;;;4897269;55;20259;-32
2023/04/28 10:39:22;;;;;;;;;;;22.00;48.80;;;;;;4817610;55;20375;-29
2023/04/28 10:44:57;;;;;;;;;;;21.90;48.70;;;;;;4792214;55;20064;-27
2023/04/28 10:50:04;;;;;;;;;;;22.00;48.80;;;;;;4753925;55;20076;-31
2023/04/28 10:55:23;;;;;;;;;;;22.00;48.80;;;;;;4765129;55;20056;-29
2023/04/28 11:00:30;;;;;;;;;;;21.90;48.70;;;;;;4759805;55;20060;-28
2023/04/28 11:05:33;;;;;;;;;;;21.90;48.70;;;;;;4770961;55;20103;-33
2023/04/28 11:10:53;;;;;;;;;;;22.00;48.70;;;;;;4804398;55;20295;-32
2023/04/28 11:16:05;;;;;;;;;;;21.90;48.70;;;;;;4794813;55;20367;-29
2023/04/28 11:21:07;;;;;;;;;;;22.00;48.20;;;;;;4760473;55;20311;-33
2023/04/28 11:26:07;;;;;;;;;;;22.00;48.30;;;;;;4744694;58;20124;-29
2023/04/28 11:31:15;;;;;;;;;;;22.00;48.30;;;;;;4798871;55;20311;-27
2023/04/28 11:36:35;;;;;;;;;;;22.00;48.40;;;;;;4745554;58;20128;-28
2023/04/28 11:41:37;;;;;;;;;;;22.00;48.40;;;;;;4790115;55;20213;-30
2023/04/28 11:46:45;;;;;;;;;;;22.00;48.80;;;;;;4761828;55;20151;-27
2023/04/28 11:51:48;;;;;;;;;;;22.00;48.70;;;;;;4744316;58;20290;-26
2023/04/28 11:56:49;;;;;;;;;;;22.00;49.00;;;;;;4744414;55;20175;-26
2023/04/28 12:01:53;;;;;;;;;;;22.10;49.40;;;;;;4769702;55;20053;-22
2023/04/28 12:07:03;;;;;;;;;;;22.10;49.50;;;;;;4744251;58;20965;-28
2023/04/28 12:12:05;;;;;;;;;;;22.20;49.50;;;;;;4750666;55;20093;-24
2023/04/28 12:17:06;;;;;;;;;;;22.20;49.80;;;;;;4742971;58;20291;-27
2023/04/28 12:22:06;;;;;;;;;;;22.20;50.00;;;;;;4745402;58;20267;-28
2023/04/28 12:27:15;;;;;;;;;;;22.20;49.80;;;;;;4770349;55;20123;-31
2023/04/28 12:32:16;;;;;;;;;;;22.20;49.90;;;;;;4757662;55;20335;-28
2023/04/28 12:37:16;;;;;;;;;;;22.20;49.80;;;;;;4743852;58;20318;-30
2023/04/28 12:42:17;;;;;;;;;;;22.10;49.90;;;;;;4753825;55;20129;-29
2023/04/28 12:47:19;;;;;;;;;;;22.10;49.90;;;;;;4744895;58;20299;-28
2023/04/28 12:52:22;;;;;;;;;;;22.10;49.80;;;;;;4769389;55;20141;-29
2023/04/28 12:57:23;;;;;;;;;;;22.10;49.80;;;;;;4775542;55;20072;-30
2023/04/28 13:02:23;;;;;;;;;;;22.10;49.80;;;;;;4791188;55;20072;-30
2023/04/28 13:07:24;;;;;;;;;;;22.10;49.80;;;;;;4746206;58;20109;-28
2023/04/28 13:12:25;;;;;;;;;;;22.10;49.90;;;;;;4765723;55;20137;-21
2023/04/28 13:17:26;;;;;;;;;;;22.10;49.70;;;;;;4793646;55;20067;-31
2023/04/28 13:22:26;;;;;;;;;;;22.10;49.70;;;;;;4768710;55;20096;-28
2023/04/28 13:27:29;;;;;;;;;;;22.10;49.70;;;;;;4868205;55;20096;-27
2023/04/28 13:32:30;;;;;;;;;;;22.10;49.70;;;;;;4790148;55;20303;-25
2023/04/28 13:37:31;;;;;;;;;;;22.10;49.70;;;;;;4746394;58;20307;-29
2023/04/28 13:42:33;;;;;;;;;;;22.10;49.60;;;;;;4788935;55;20299;-26
2023/04/28 13:47:34;;;;;;;;;;;22.10;49.60;;;;;;4764841;55;20063;-35
2023/04/28 13:52:35;;;;;;;;;;;22.00;49.50;;;;;;4782800;55;20117;-34
2023/04/28 13:57:36;;;;;;;;;;;22.00;49.50;;;;;;4772524;55;20143;-34
2023/04/28 14:02:38;;;;;;;;;;;22.10;49.50;;;;;;4810858;55;20076;-37
2023/04/28 14:07:39;;;;;;;;;;;22.10;49.50;;;;;;4765225;55;20180;-34
2023/04/28 14:12:41;;;;;;;;;;;22.10;49.50;;;;;;4769444;55;20072;-28
2023/04/28 14:17:42;;;;;;;;;;;22.10;49.50;;;;;;4750241;55;20057;-27
2023/04/28 14:22:42;;;;;;;;;;;22.00;49.40;;;;;;4789642;55;20295;-26
2023/04/28 14:27:43;;;;;;;;;;;22.10;49.50;;;;;;4752780;55;20112;-28
2023/04/28 14:32:44;;;;;;;;;;;22.10;49.50;;;;;;4776683;55;20105;-29
2023/04/28 14:37:45;;;;;;;;;;;22.00;49.20;;;;;;4745933;58;20302;-28
2023/04/28 14:42:46;;;;;;;;;;;22.00;49.30;;;;;;4750699;55;20287;-31
2023/04/28 14:47:47;;;;;;;;;;;22.00;49.40;;;;;;4780921;55;20117;-30
2023/04/28 14:52:48;;;;;;;;;;;22.10;49.40;;;;;;4746201;58;20410;-31
2023/04/28 14:57:49;;;;;;;;;;;22.10;49.40;;;;;;4746312;58;20069;-30
2023/04/28 15:02:49;;;;;;;;;;;22.00;49.40;;;;;;4770536;55;20056;-27
2023/04/28 15:07:50;;;;;;;;;;;22.00;49.30;;;;;;4746574;58;20489;-31
2023/04/28 15:12:51;;;;;;;;;;;22.10;49.40;;;;;;4746895;55;20112;-30
2023/04/28 15:17:52;;;;;;;;;;;22.10;49.40;;;;;;4746569;58;20335;-30
2023/04/28 15:22:52;;;;;;;;;;;22.00;49.20;;;;;;4747020;58;20068;-28
2023/04/28 15:27:53;;;;;;;;;;;22.00;49.30;;;;;;4746008;58;20136;-26
2023/04/28 15:32:53;;;;;;;;;;;22.00;49.30;;;;;;4784047;55;20117;-29
2023/04/28 15:37:54;;;;;;;;;;;22.00;49.30;;;;;;4746770;58;20113;-29
2023/04/28 15:42:55;;;;;;;;;;;22.00;49.30;;;;;;4763338;55;20112;-27
2023/04/28 15:47:57;;;;;;;;;;;22.00;49.20;;;;;;4780107;55;20057;-32
2023/04/28 15:52:58;;;;;;;;;;;22.10;49.30;;;;;;4753424;55;20283;-32
2023/04/28 15:58:03;;;;;;;;;;;22.10;49.30;;;;;;4746257;58;20505;-27
2023/04/28 16:03:04;;;;;;;;;;;22.00;49.20;;;;;;4790063;55;20088;-29
2023/04/28 16:08:04;;;;;;;;;;;22.00;49.30;;;;;;4774377;55;20175;-30
2023/04/28 16:13:09;;;;;;;;;;;22.00;49.20;;;;;;4746580;58;20314;-28
2023/04/28 16:18:10;;;;;;;;;;;22.00;49.20;;;;;;4813502;55;20694;-27
2023/04/28 16:23:11;;;;;;;;;;;22.00;49.20;;;;;;4841333;55;20180;-28
2023/04/28 16:28:11;;;;;;;;;;;22.00;49.20;;;;;;4752186;55;20247;-30
2023/04/28 16:33:12;;;;;;;;;;;22.00;49.20;;;;;;4878388;55;20108;-29
2023/04/28 16:38:13;;;;;;;;;;;22.00;49.30;;;;;;4772112;55;20441;-31
2023/04/28 16:43:14;;;;;;;;;;;22.00;49.80;;;;;;4825626;55;20318;-28
2023/04/28 16:48:15;;;;;;;;;;;22.00;49.20;;;;;;4793999;55;20156;-31
2023/04/28 16:53:16;;;;;;;;;;;22.00;49.20;;;;;;4747000;55;20263;-28
2023/04/28 16:58:16;;;;;;;;;;;22.00;49.80;;;;;;4764682;55;20379;-30
2023/04/28 17:03:17;;;;;;;;;;;22.00;49.10;;;;;;4745750;56;20068;-29
2023/04/28 17:08:18;;;;;;;;;;;22.00;49.20;;;;;;4784940;55;20133;-27
2023/04/28 17:13:18;;;;;;;;;;;22.00;49.20;;;;;;4808762;55;20306;-29
2023/04/28 17:18:19;;;;;;;;;;;22.00;49.10;;;;;;4884556;55;20120;-31
2023/04/28 17:23:20;;;;;;;;;;;22.00;49.20;;;;;;4773536;55;20120;-29
2023/04/28 17:28:23;;;;;;;;;;;22.00;49.20;;;;;;4792175;55;20052;-28
2023/04/28 17:33:24;;;;;;;;;;;22.00;49.10;;;;;;4746260;56;20302;-28
2023/04/28 17:38:25;;;;;;;;;;;22.10;49.20;;;;;;4746611;58;20084;-30
2023/04/28 17:43:26;;;;;;;;;;;22.10;49.20;;;;;;4899709;55;20060;-28
2023/04/28 17:48:27;;;;;;;;;;;22.10;49.30;;;;;;4779716;55;20163;-28
2023/04/28 17:53:27;;;;;;;;;;;22.00;49.10;;;;;;4819090;55;20120;-27
2023/04/28 17:58:31;;;;;;;;;;;22.10;49.20;;;;;;4746270;58;20374;-29
2023/04/28 18:03:36;;;;;;;;;;;22.10;49.20;;;;;;4746388;58;20116;-26
2023/04/28 18:08:37;;;;;;;;;;;22.00;49.20;;;;;;4780432;55;20362;-31
2023/04/28 18:13:37;;;;;;;;;;;22.00;49.20;;;;;;4760987;55;20065;-32
2023/04/28 18:18:38;;;;;;;;;;;22.10;49.20;;;;;;4762650;55;20132;-29
2023/04/28 18:23:39;;;;;;;;;;;22.00;49.20;;;;;;4789111;55;20354;-31
2023/04/28 18:28:40;;;;;;;;;;;22.10;49.20;;;;;;4745916;58;20092;-28
2023/04/28 18:33:40;;;;;;;;;;;22.00;49.20;;;;;;4769090;55;20398;-29
2023/04/28 18:38:41;;;;;;;;;;;22.10;49.20;;;;;;4764225;55;20069;-31
2023/04/28 18:43:42;;;;;;;;;;;22.00;49.20;;;;;;4867441;55;20332;-32
2023/04/28 18:48:43;;;;;;;;;;;22.10;49.20;;;;;;4964756;55;20187;-31
2023/04/28 18:53:44;;;;;;;;;;;22.00;49.20;;;;;;4753787;55;20303;-29
2023/04/28 18:58:46;;;;;;;;;;;22.00;49.10;;;;;;4968571;55;20283;-31
2023/04/28 19:03:47;;;;;;;;;;;22.00;49.10;;;;;;4826761;55;20366;-27
2023/04/28 19:08:48;;;;;;;;;;;22.00;49.20;;;;;;4906389;55;20065;-29
2023/04/28 19:13:48;;;;;;;;;;;22.10;49.20;;;;;;4795440;55;20306;-28
2023/04/28 19:18:49;;;;;;;;;;;22.10;49.20;;;;;;4847888;55;20109;-29
2023/04/28 19:23:50;;;;;;;;;;;22.00;49.20;;;;;;4794918;55;20084;-27
2023/04/28 19:28:50;;;;;;;;;;;22.00;49.10;;;;;;4768731;55;20324;-28
2023/04/28 19:33:51;;;;;;;;;;;22.00;49.10;;;;;;4745818;56;20068;-28
2023/04/28 19:38:51;;;;;;;;;;;22.00;49.10;;;;;;4779777;55;20064;-27
2023/04/28 19:43:52;;;;;;;;;;;22.00;49.20;;;;;;4819483;55;20112;-31
2023/04/28 19:48:53;;;;;;;;;;;22.10;49.30;;;;;;4857018;55;20065;-30
2023/04/28 19:53:54;;;;;;;;;;;22.00;49.20;;;;;;4765684;55;20398;-30
2023/04/28 19:58:54;;;;;;;;;;;22.10;49.20;;;;;;4831051;55;20063;-30
2023/04/28 20:03:55;;;;;;;;;;;22.00;49.20;;;;;;4746540;58;20112;-29
2023/04/28 20:08:56;;;;;;;;;;;22.00;49.50;;;;;;4757598;55;20294;-29
2023/04/28 20:13:57;;;;;;;;;;;22.00;49.20;;;;;;4746630;58;20359;-30
2023/04/28 20:18:58;;;;;;;;;;;22.10;49.80;;;;;;4746539;58;20299;-28
2023/04/28 20:23:59;;;;;;;;;;;22.00;49.20;;;;;;4749494;55;20129;-29
2023/04/28 20:28:59;;;;;;;;;;;22.00;49.20;;;;;;4879329;54;20084;-28
2023/04/28 20:34:01;;;;;;;;;;;22.00;49.40;;;;;;4785340;55;20355;-31
2023/04/28 20:39:01;;;;;;;;;;;22.00;49.30;;;;;;4746722;58;20382;-27
2023/04/28 20:44:02;;;;;;;;;;;22.00;49.30;;;;;;4769699;55;20068;-32
2023/04/28 20:49:04;;;;;;;;;;;22.00;49.30;;;;;;4779626;55;20351;-29
2023/04/28 20:54:06;;;;;;;;;;;22.10;49.30;;;;;;4766665;55;20303;-27
2023/04/28 20:59:06;;;;;;;;;;;22.10;49.40;;;;;;4780714;55;20315;-30
2023/04/28 21:04:07;;;;;;;;;;;22.00;49.40;;;;;;4793727;55;20076;-28
2023/04/28 21:09:08;;;;;;;;;;;22.00;49.30;;;;;;4922505;55;20330;-28
2023/04/28 21:14:09;;;;;;;;;;;22.10;49.40;;;;;;4792314;55;20306;-29
2023/04/28 21:19:10;;;;;;;;;;;22.00;49.30;;;;;;4756077;55;20052;-28
2023/04/28 21:24:11;;;;;;;;;;;22.00;49.40;;;;;;4753424;55;20335;-27
2023/04/28 21:29:12;;;;;;;;;;;22.00;49.30;;;;;;4745773;58;20295;-27
2023/04/28 21:34:12;;;;;;;;;;;22.00;49.30;;;;;;4760556;55;20064;-27
2023/04/28 21:39:13;;;;;;;;;;;22.00;50.10;;;;;;4787111;55;20355;-27
2023/04/28 21:44:14;;;;;;;;;;;22.00;49.40;;;;;;4782030;55;20072;-26
2023/04/28 21:49:15;;;;;;;;;;;22.00;49.40;;;;;;4833470;55;20072;-33
2023/04/28 21:54:15;;;;;;;;;;;22.00;49.50;;;;;;4804891;55;20164;-28
2023/04/28 21:59:16;;;;;;;;;;;22.00;49.50;;;;;;4746197;58;20415;-30
2023/04/28 22:04:17;;;;;;;;;;;22.00;49.50;;;;;;4746903;58;20326;-29
2023/04/28 22:09:18;;;;;;;;;;;22.00;49.50;;;;;;4746368;58;20072;-28
2023/04/28 22:14:18;;;;;;;;;;;22.00;49.50;;;;;;4793678;55;20331;-25
2023/04/28 22:19:19;;;;;;;;;;;22.00;49.60;;;;;;4785109;55;20112;-30
2023/04/28 22:24:20;;;;;;;;;;;22.00;49.60;;;;;;4759961;55;20060;-31
2023/04/28 22:29:21;;;;;;;;;;;22.00;49.60;;;;;;4745522;55;20317;-29
2023/04/28 22:34:21;;;;;;;;;;;22.00;49.70;;;;;;4767203;55;20164;-32
2023/04/28 22:39:23;;;;;;;;;;;22.00;49.80;;;;;;4788815;55;20080;-32
2023/04/28 22:44:24;;;;;;;;;;;22.00;49.80;;;;;;4839395;55;20311;-29
2023/04/28 22:49:27;;;;;;;;;;;22.10;49.80;;;;;;4746578;56;20068;-31
2023/04/28 22:54:28;;;;;;;;;;;22.00;49.80;;;;;;4829923;55;20291;-29
2023/04/28 22:59:28;;;;;;;;;;;22.00;49.80;;;;;;4891857;55;20108;-31
2023/04/28 23:04:30;;;;;;;;;;;22.00;50.10;;;;;;4837246;55;20291;-30
2023/04/28 23:09:32;;;;;;;;;;;22.00;49.80;;;;;;4818025;55;20307;-28
2023/04/28 23:14:34;;;;;;;;;;;22.00;49.80;;;;;;4770631;55;20412;-29
2023/04/28 23:19:37;;;;;;;;;;;22.00;49.90;;;;;;4860001;55;20106;-30
2023/04/28 23:24:38;;;;;;;;;;;22.00;50.00;;;;;;4800468;55;20331;-29
2023/04/28 23:29:39;;;;;;;;;;;22.10;49.90;;;;;;4746116;55;20310;-31
2023/04/28 23:34:41;;;;;;;;;;;22.00;49.90;;;;;;4821803;55;20109;-31
2023/04/28 23:39:42;;;;;;;;;;;22.00;49.90;;;;;;4752379;55;20298;-28
2023/04/28 23:44:42;;;;;;;;;;;22.00;50.00;;;;;;4831551;55;20107;-27
2023/04/28 23:49:43;;;;;;;;;;;22.00;50.00;;;;;;4824580;55;20347;-28
2023/04/28 23:54:44;;;;;;;;;;;22.00;50.00;;;;;;4746078;58;20116;-29
2023/04/28 23:59:44;;;;;;;;;;;22.00;50.10;;;;;;4777550;55;20068;-33
